Latest Weather Observations for Grafton Airport

IDN60801

Issued at 11:35 pm EST Monday 1 September 2014 (issued every 30 minutes, with the page automatically refreshed every 10 minutes)

About weather observations | Map of weather stations | Latest weather observations for NSW | Other Formats
Station Details ID: 058161 Name: GRAFTON AIRPORT AWS Lat: -29.76 Lon: 153.03 Height: 25.09 m
Data from the previous 72 hours. | See also: Recent months for locations in New South Wales
Date/Time
EST
Temp
°C
App
Temp
°C
Dew
Point
Rel
Hum
%
Delta-T
°C
Wind Press
QNH
hPa
Press
MSL
hPa
Rain
since 9 am
mm
Dir
 
Spd
km/h
Gust
km/h
Spd
kts
Gust
kts
01/10:30pm 13.8 14.9 13.5 98 0.2 CALM 0 0 0 0 1014.0 - 0.0
01/10:00pm 13.9 14.9 13.1 95 0.4 CALM 0 0 0 0 1014.2 1014.1 0.0
01/09:30pm 14.3 14.3 13.5 95 0.4 S 6 9 3 5 1014.4 - 0.0
01/09:00pm 14.6 15.6 13.1 91 0.8 CALM 0 0 0 0 1014.5 1014.4 0.0
01/08:30pm 15.9 17.5 14.8 93 0.6 CALM 0 0 0 0 1014.4 - 0.0
01/08:00pm 15.6 15.0 13.6 88 1.1 NNE 9 9 5 5 1014.6 1014.5 0.0
01/07:30pm 16.6 16.4 14.8 89 1.0 NNE 9 13 5 7 1014.7 - 0.0
01/07:00pm 16.3 16.6 14.5 89 1.0 N 6 11 3 6 1014.8 1014.7 0.0
01/06:30pm 16.5 16.5 14.2 86 1.3 NNE 7 9 4 5 1014.5 - 0.0
01/06:00pm 17.3 16.2 14.2 82 1.8 NE 13 13 7 7 1014.3 1014.2 0.0
01/05:30pm 18.1 17.1 14.6 80 2.0 NE 13 15 7 8 1014.0 - 0.0
01/05:00pm 18.5 17.1 14.4 77 2.4 NE 15 20 8 11 1013.8 1013.7 0.0
01/04:30pm 19.3 17.4 14.3 73 2.9 NE 17 28 9 15 1013.6 - 0.0
01/04:00pm 20.4 18.4 13.8 66 3.8 ENE 17 26 9 14 1013.4 1013.3 0.0
01/03:30pm 22.2 19.8 14.3 61 4.6 NE 20 28 11 15 1013.1 - 0.0
01/03:00pm 25.3 23.5 7.9 33 9.3 N 7 15 4 8 1013.2 1013.1 0.0
01/02:30pm 25.1 22.9 7.7 33 9.2 NNW 9 15 5 8 1013.5 - 0.0
01/02:00pm 24.4 22.2 8.0 35 8.7 NW 9 15 5 8 1014.2 1014.1 0.0
01/01:30pm 23.4 22.1 10.1 43 7.3 N 7 15 4 8 1014.7 - 0.0
01/01:00pm 23.1 20.2 9.5 42 7.4 N 15 22 8 12 1015.0 1014.9 0.0
01/12:30pm 23.6 21.1 9.6 41 7.6 N 13 22 7 12 1015.5 - 0.0
01/12:00pm 23.3 21.6 10.0 43 7.3 NW 9 17 5 9 1015.9 1015.8 0.0
01/11:30am 22.8 21.7 12.1 51 6.1 NNW 9 17 5 9 1016.8 - 0.0
01/11:00am 22.3 21.4 13.6 58 5.0 N 11 20 6 11 1017.6 1017.6 0.0
01/10:30am 21.8 20.5 12.6 56 5.2 NNW 11 17 6 9 1018.1 - 0.0
01/10:00am 21.1 20.8 14.3 65 4.0 N 9 15 5 8 1018.4 1018.4 0.0
01/09:30am 19.4 19.3 14.0 71 3.1 NNE 7 13 4 7 1018.7 - 0.0
01/09:00am 18.6 19.0 14.7 78 2.3 NNE 6 9 3 5 1018.9 1018.9 0.0
01/08:30am 16.1 17.1 14.3 89 1.0 W 2 6 1 3 1019.1 - 0.0
01/08:21am 15.5 17.1 14.9 96 0.3 CALM 0 0 0 0 1019.1 - 0.0
01/08:18am 15.3 16.8 14.7 96 0.3 CALM 0 0 0 0 1019.1 - 0.0
01/08:00am 14.2 15.5 14.0 99 0.1 CALM 0 0 0 0 1019.1 1019.1 0.0
01/07:30am 13.3 14.3 13.1 99 0.1 CALM 0 4 0 2 1019.0 - 0.0
01/07:02am 12.6 13.4 12.4 99 0.1 CALM 0 0 0 0 1018.9 - 0.0
01/07:00am 12.4 13.1 12.2 99 0.1 CALM 0 0 0 0 1018.9 1018.9 0.0
01/06:58am 12.2 12.8 12.0 99 0.1 CALM 0 0 0 0 1018.9 - 0.0
01/06:30am 12.0 11.4 11.8 99 0.1 SE 6 7 3 4 1018.7 - 0.0
01/06:23am 11.9 11.3 11.7 99 0.1 S 6 7 3 4 1018.7 - 0.0
01/06:17am 11.9 11.3 11.7 99 0.1 S 6 7 3 4 1018.7 - 0.0
01/06:00am 11.7 11.8 11.5 99 0.1 SW 2 7 1 4 1018.6 1018.6 0.0
01/05:30am 11.4 11.8 11.1 98 0.2 CALM 0 0 0 0 1018.1 - 0.0
01/05:00am 11.7 12.1 11.1 96 0.3 CALM 0 0 0 0 1017.7 1017.7 0.0
01/04:30am 12.3 12.9 12.0 98 0.2 CALM 0 0 0 0 1017.7 - 0.0
01/04:28am 12.3 12.9 11.8 97 0.3 CALM 0 0 0 0 1017.7 - 0.0
01/04:00am 12.5 13.1 11.9 96 0.3 CALM 0 0 0 0 1017.7 1017.7 0.0
01/03:30am 13.1 13.8 12.3 95 0.4 CALM 0 0 0 0 1017.7 - 0.0
01/03:26am 13.1 13.8 12.3 95 0.4 CALM 0 0 0 0 1017.6 - 0.0
01/03:00am 13.7 14.7 13.1 96 0.3 CALM 0 0 0 0 1017.8 1017.8 0.0
01/02:58am 13.7 14.7 13.1 96 0.3 CALM 0 0 0 0 1017.8 - 0.0
01/02:36am 13.6 14.3 12.3 92 0.7 CALM 0 0 0 0 1017.9 - 0.0
01/02:30am 13.6 14.3 12.2 91 0.8 ESE 0 0 0 0 1018.0 - 0.0
01/02:00am 14.5 15.5 13.2 92 0.7 CALM 0 0 0 0 1018.0 1018.0 0.0
01/01:30am 14.9 16.0 13.6 92 0.7 CALM 0 0 0 0 1018.4 - 0.0
01/01:00am 15.0 16.2 13.9 93 0.6 CALM 0 0 0 0 1018.5 1018.5 0.0
01/12:30am 14.9 16.0 13.6 92 0.7 CALM 0 0 0 0 1018.6 - 0.0
01/12:00am 14.9 16.0 13.6 92 0.7 SSW 0 0 0 0 1018.5 1018.5 0.0
 
Date/Time
EST
Temp
°C
App
Temp
°C
Dew
Point
Rel
Hum
%
Delta-T
°C
Wind Press
QNH
hPa
Press
MSL
hPa
Rain
since 9 am
mm
Dir
 
Spd
km/h
Gust
km/h
Spd
kts
Gust
kts
31/11:30pm 14.9 16.0 13.6 92 0.7 CALM 0 0 0 0 1018.6 - 0.0
31/11:00pm 15.1 16.2 13.5 90 0.9 CALM 0 0 0 0 1018.7 1018.7 0.0
31/10:30pm 15.3 16.3 13.1 87 1.2 CALM 0 0 0 0 1018.7 - 0.0
31/10:00pm 15.6 16.4 13.6 88 1.1 SSW 2 6 1 3 1018.7 1018.7 0.0
31/09:30pm 16.0 17.2 13.7 86 1.3 CALM 0 0 0 0 1018.9 - 0.0
31/09:00pm 16.2 17.4 13.7 85 1.4 CALM 0 0 0 0 1018.9 1018.9 0.0
31/08:30pm 16.0 17.0 13.3 84 1.5 CALM 0 0 0 0 1018.8 - 0.0
31/08:00pm 16.4 17.5 13.5 83 1.6 CALM 0 0 0 0 1018.5 1018.5 0.0
31/07:30pm 16.2 16.7 12.9 81 1.8 SSW 2 6 1 3 1018.5 - 0.0
31/07:00pm 17.2 16.6 13.5 79 2.1 SSE 9 13 5 7 1018.1 1018.1 0.0
31/06:30pm 17.4 16.4 13.3 77 2.3 SE 11 15 6 8 1017.7 - 0.0
31/06:00pm 17.6 16.1 13.1 75 2.5 SE 13 17 7 9 1017.4 1017.4 0.0
31/05:30pm 18.3 16.4 13.0 71 3.0 SE 15 22 8 12 1017.2 - 0.0
31/05:00pm 18.8 16.5 13.0 69 3.3 SE 17 26 9 14 1016.9 1016.9 0.0
31/04:30pm 20.0 18.1 13.0 64 4.0 SE 15 24 8 13 1016.5 - 0.0
31/04:00pm 20.9 18.0 12.3 58 4.8 SE 19 28 10 15 1016.1 1016.1 0.0
31/03:30pm 21.4 18.8 12.0 55 5.3 SE 17 22 9 12 1016.0 - 0.0
31/03:00pm 21.5 19.7 12.1 55 5.3 ESE 13 20 7 11 1016.0 1016.0 0.0
31/02:30pm 23.4 22.0 12.1 49 6.4 E 11 19 6 10 1015.9 - 0.0
31/02:00pm 21.8 20.1 12.4 55 5.3 ENE 13 19 7 10 1016.0 1016.0 0.0
31/01:30pm 22.9 20.8 11.3 48 6.5 E 13 20 7 11 1016.2 - 0.0
31/01:00pm 23.8 22.7 11.8 47 6.8 ENE 9 20 5 11 1016.5 1016.5 0.0
31/12:30pm 23.1 22.2 10.5 45 6.9 NNW 6 9 3 5 1016.9 - 0.0
31/12:00pm 21.4 19.4 10.3 49 6.0 SE 11 17 6 9 1017.3 1017.3 0.0
31/11:30am 21.7 20.2 10.5 49 6.1 SSW 9 17 5 9 1017.6 - 0.0
31/11:00am 21.5 20.6 10.6 50 6.0 SSW 6 13 3 7 1018.1 1018.1 0.0
31/10:30am 20.7 19.2 10.5 52 5.5 SSE 9 15 5 8 1018.6 - 0.0
31/10:00am 20.5 19.6 10.6 53 5.4 ENE 6 11 3 6 1018.8 1018.8 0.0
31/09:30am 19.0 18.6 11.1 60 4.3 ENE 4 7 2 4 1019.2 - 0.0
31/09:00am 17.3 16.9 11.1 67 3.3 NNE 4 7 2 4 1019.5 1019.5 0.0
31/08:30am 15.6 15.6 11.0 74 2.5 NW 2 7 1 4 1019.5 - 0.0
31/08:00am 13.2 13.3 10.2 82 1.5 CALM 0 0 0 0 1019.5 1019.5 0.0
31/07:30am 11.3 11.3 9.9 91 0.7 CALM 0 0 0 0 1019.3 - 0.0
31/07:00am 9.5 9.3 9.2 98 0.1 CALM 0 0 0 0 1019.4 1019.4 0.0
31/06:30am 7.8 7.2 7.2 96 0.3 CALM 0 0 0 0 1019.2 - 0.0
31/06:00am 8.4 7.9 8.0 97 0.2 CALM 0 0 0 0 1018.8 1018.8 0.0
31/05:30am 8.7 8.3 8.1 96 0.3 CALM 0 0 0 0 1018.6 - 0.0
31/05:00am 8.7 8.3 8.1 96 0.3 CALM 0 0 0 0 1018.2 1018.2 0.0
31/04:30am 8.9 8.6 8.5 97 0.2 CALM 0 0 0 0 1018.1 - 0.0
31/04:00am 8.8 8.4 8.2 96 0.3 CALM 0 0 0 0 1017.9 1017.9 0.0
31/03:30am 9.3 8.9 8.4 94 0.4 CALM 0 0 0 0 1017.8 - 0.0
31/03:00am 9.8 9.6 8.9 94 0.4 CALM 0 0 0 0 1017.9 1017.9 0.0
31/02:30am 9.8 9.6 8.9 94 0.4 CALM 0 0 0 0 1017.9 - 0.0
31/02:00am 9.7 8.5 8.0 89 0.8 S 4 7 2 4 1018.0 1018.0 0.0
31/01:30am 11.4 10.3 9.8 90 0.8 S 6 9 3 5 1018.1 - 0.0
31/01:00am 11.4 10.3 10.5 94 0.5 SSW 7 11 4 6 1018.3 1018.3 0.0
31/12:30am 10.4 10.3 9.3 93 0.5 CALM 0 0 0 0 1018.5 - 0.0
31/12:00am 11.1 10.0 9.9 92 0.6 SW 6 6 3 3 1018.5 1018.5 0.0
 
Date/Time
EST
Temp
°C
App
Temp
°C
Dew
Point
Rel
Hum
%
Delta-T
°C
Wind Press
QNH
hPa
Press
MSL
hPa
Rain
since 9 am
mm
Dir
 
Spd
km/h
Gust
km/h
Spd
kts
Gust
kts
30/11:30pm 10.7 9.5 9.5 92 0.6 S 6 7 3 4 1018.5 - 0.0
30/11:00pm 10.3 10.0 8.7 90 0.8 CALM 0 0 0 0 1018.5 1018.5 0.0
30/10:30pm 11.1 10.0 9.9 92 0.6 SSW 6 9 3 5 1018.5 - 0.0
30/10:00pm 11.4 10.1 9.8 90 0.8 SSW 7 9 4 5 1018.5 1018.5 0.0
30/09:30pm 11.3 9.9 9.7 90 0.8 SSW 7 9 4 5 1018.5 - 0.0
30/09:00pm 12.1 12.1 9.8 86 1.2 CALM 0 0 0 0 1018.5 1018.5 0.0
30/08:30pm 13.2 12.0 9.5 78 1.9 S 6 9 3 5 1018.3 - 0.0
30/08:00pm 14.7 13.4 9.9 73 2.5 S 7 9 4 5 1018.3 1018.3 0.0
30/07:30pm 14.4 12.4 10.2 76 2.2 S 11 13 6 7 1018.2 - 0.0
30/07:00pm 15.6 14.4 10.2 70 2.8 S 7 9 4 5 1018.1 1018.1 0.0
30/06:30pm 15.8 14.5 9.9 68 3.1 SSE 7 9 4 5 1017.7 - 0.0
30/06:00pm 16.9 15.6 9.8 63 3.7 S 7 9 4 5 1017.6 1017.6 0.0
30/05:30pm 18.3 16.2 9.9 58 4.5 S 11 15 6 8 1017.5 - 0.0
30/05:00pm 19.8 16.6 10.0 53 5.2 S 17 24 9 13 1017.2 1017.2 0.0
30/04:30pm 21.2 18.2 9.4 47 6.3 S 15 22 8 12 1016.9 - 0.0
30/04:00pm 21.2 17.9 9.4 47 6.3 S 17 22 9 12 1016.8 1016.8 0.0
30/03:30pm 20.6 16.7 9.5 49 5.9 S 20 28 11 15 1016.7 - 0.0
30/03:00pm 21.3 18.0 9.5 47 6.3 S 17 28 9 15 1016.6 1016.6 0.0
30/02:30pm 22.9 20.0 9.7 43 7.2 SW 15 26 8 14 1016.5 - 0.0
30/02:00pm 22.4 18.0 10.5 47 6.5 S 24 35 13 19 1016.8 1016.8 0.0
30/01:30pm 22.3 18.8 10.1 46 6.6 S 19 28 10 15 1017.0 - 0.0
30/01:00pm 22.8 19.3 10.9 47 6.6 S 20 28 11 15 1017.3 1017.3 0.0
30/12:30pm 21.5 17.2 9.4 46 6.5 S 22 39 12 21 1017.5 - 0.0
30/12:00pm 21.6 17.4 9.8 47 6.4 S 22 32 12 17 1017.9 1017.9 0.0
30/11:30am 21.1 18.1 10.6 51 5.7 SSW 17 28 9 15 1018.3 - 0.0
30/11:00am 20.9 18.2 10.4 51 5.7 S 15 20 8 11 1018.6 1018.6 0.0
30/10:30am 20.6 18.1 9.8 50 5.8 SW 13 20 7 11 1018.8 - 0.0
30/10:00am 19.7 17.9 9.6 52 5.4 S 9 15 5 8 1019.1 1019.1 0.0
30/09:30am 18.7 17.2 9.2 54 5.0 SW 7 11 4 6 1019.2 - 0.0
30/09:00am 17.3 14.8 8.2 55 4.6 WSW 11 15 6 8 1019.2 1019.2 0.0
30/08:30am 15.8 15.0 8.1 60 3.9 W 2 7 1 4 1019.2 - 0.0
30/08:00am 13.8 13.0 6.7 62 3.4 CALM 0 0 0 0 1019.5 1019.5 0.0
30/07:30am 11.3 10.9 8.3 82 1.5 CALM 0 0 0 0 1019.4 - 0.0
30/07:00am 8.6 6.7 6.9 89 0.8 S 6 9 3 5 1019.2 1019.2 0.0
30/06:30am 7.8 6.8 5.6 86 1.0 CALM 0 0 0 0 1019.0 - 0.0
30/06:00am 7.6 5.2 5.2 85 1.1 S 7 9 4 5 1018.6 1018.6 0.0
30/05:30am 8.9 7.0 5.1 77 1.7 SSW 4 7 2 4 1018.2 - 0.0
30/05:00am 9.2 6.7 4.6 73 2.0 SSW 7 9 4 5 1018.1 1018.1 0.0
30/04:30am 9.0 7.0 4.6 74 2.0 SW 4 7 2 4 1018.2 - 0.0
30/04:00am 9.7 8.4 4.3 69 2.4 CALM 0 0 0 0 1018.2 1018.2 0.0
30/03:30am 10.1 8.5 4.3 67 2.6 SW 2 6 1 3 1018.0 - 0.0
30/03:00am 10.3 8.3 4.5 67 2.6 WSW 4 7 2 4 1018.1 1018.1 0.0
30/02:30am 9.9 7.5 4.5 69 2.4 WSW 6 7 3 4 1018.6 - 0.0
30/02:00am 9.5 8.4 5.1 74 2.0 CALM 0 0 0 0 1019.0 1019.0 0.0
30/01:30am 8.1 6.5 4.5 78 1.6 E 2 6 1 3 1019.2 - 0.0
30/01:00am 9.4 6.5 4.8 73 2.0 SW 9 11 5 6 1019.5 1019.5 0.0
30/12:30am 8.7 6.3 5.3 79 1.5 SW 7 9 4 5 1019.8 - 0.0
30/12:00am 10.6 8.4 5.4 70 2.4 S 6 7 3 4 1020.2 1020.2 0.0

Other Formats:

Comma delimited format used in spreadsheet applications
http://www.bom.gov.au/fwo/IDN60801/IDN60801.95570.axf

JavaScript Object Notation format (JSON) in row-major order
http://www.bom.gov.au/fwo/IDN60801/IDN60801.95570.json